Time;durP1;ratioP1;P1;durP2;ratioP2;P2;SDS_P1;SDS_P2;PMS_P1;PMS_P2;Temp;Humidity;BMP_temperature;BMP_pressure;BME280_temperature;BME280_humidity;BME280_pressure;Samples;Min_cycle;Max_cycle;Signal;HPM_P1;HPM_P2
2023/09/09 00:01:13;;;;;;;35.20;19.60;;;;;;;;;;6330227;28;20047;-78
2023/09/09 00:04:15;;;;;;;23.37;18.77;;;;;;;;;;6333251;28;20043;-79
2023/09/09 00:07:18;;;;;;;44.55;20.38;;;;;;;;;;6326189;28;20082;-77
2023/09/09 00:10:20;;;;;;;30.58;18.98;;;;;;;;;;6300684;28;20041;-77
2023/09/09 00:13:51;;;;;;;39.38;21.90;;;;;;;;;;6322230;28;20164;-77
2023/09/09 00:17:17;;;;;;;21.70;14.05;;;;;;;;;;6330457;28;20071;-77
2023/09/09 00:20:22;;;;;;;21.35;10.50;;;;;;;;;;6302786;28;20059;-79
2023/09/09 00:23:36;;;;;;;17.42;10.50;;;;;;;;;;6336478;28;20052;-78
2023/09/09 00:27:30;;;;;;;15.90;10.18;;;;;;;;;;6303730;28;20110;-82
2023/09/09 00:47:09;;;;;;;15.75;9.90;;;;;;;;;;6130028;28;20174;-81
2023/09/09 00:50:42;;;;;;;13.57;10.95;;;;;;;;;;6136867;28;20056;-79
2023/09/09 00:53:44;;;;;;;14.52;11.77;;;;;;;;;;6120880;28;20047;-79
2023/09/09 00:57:00;;;;;;;17.17;10.57;;;;;;;;;;6142381;28;20082;-78
2023/09/09 01:00:09;;;;;;;19.90;11.75;;;;;;;;;;6133497;28;20470;-79
2023/09/09 06:09:08;;;;;;;12.82;9.75;;;;;;;;;;5950441;29;20050;-80
2023/09/09 06:12:23;;;;;;;17.02;9.52;;;;;;;;;;6007337;29;20144;-79
2023/09/09 07:18:57;;;;;;;;;;;;;;;;;;6001905;29;20056;-79
2023/09/09 07:34:14;;;;;;;14.13;8.55;;;;;;;;;;6022408;29;20053;-79
2023/09/09 07:38:01;;;;;;;16.48;8.70;;;;;;;;;;6123652;28;20233;-81
2023/09/09 12:20:27;;;;;;;7.88;6.22;;;;;;;;;;6115654;29;20055;-78
2023/09/09 12:23:42;;;;;;;7.20;6.18;;;;;;;;;;6132174;29;20158;-78
2023/09/09 12:31:14;;;;;;;8.52;5.75;;;;;;;;;;6169645;28;20047;-79
2023/09/09 12:47:53;;;;;;;6.45;5.88;;;;;;;;;;6099970;29;20047;-78
2023/09/09 17:35:02;;;;;;;12.68;6.88;;;;;;;;;;6048591;29;20060;-78
2023/09/09 17:38:07;;;;;;;10.13;6.45;;;;;;;;;;6103348;28;20125;-78
2023/09/09 17:41:12;;;;;;;7.72;6.13;;;;;;;;;;6160529;28;20062;-78
2023/09/09 17:44:20;;;;;;;16.05;5.90;;;;;;;;;;6215284;28;20065;-77
2023/09/09 17:47:21;;;;;;;14.60;7.25;;;;;;;;;;6220437;28;20054;-78
2023/09/09 17:50:25;;;;;;;15.67;7.40;;;;;;;;;;6263896;28;20431;-78
2023/09/09 17:53:27;;;;;;;8.55;5.72;;;;;;;;;;6265489;28;20044;-78
2023/09/09 17:56:32;;;;;;;12.95;7.75;;;;;;;;;;6270331;28;20099;-78
2023/09/09 17:59:33;;;;;;;7.97;6.40;;;;;;;;;;6330469;28;20292;-77
2023/09/09 18:02:36;;;;;;;11.43;6.30;;;;;;;;;;6342190;27;20062;-78
2023/09/09 18:09:14;;;;;;;12.20;7.50;;;;;;;;;;6342910;28;20405;-77
2023/09/09 18:12:26;;;;;;;;;;;;;;;;;;;;;
2023/09/09 18:15:31;;;;;;;8.25;6.43;;;;;;;;;;6344335;27;20262;-78
2023/09/09 18:18:33;;;;;;;7.00;6.15;;;;;;;;;;6328314;28;20078;-78
2023/09/09 18:25:01;;;;;;;9.70;6.60;;;;;;;;;;6339503;28;20466;-78
2023/09/09 18:28:04;;;;;;;11.02;6.45;;;;;;;;;;6341901;28;20059;-78
2023/09/09 18:31:15;;;;;;;10.40;7.10;;;;;;;;;;6344080;28;20093;-78
2023/09/09 18:34:20;;;;;;;8.98;6.57;;;;;;;;;;6339731;28;20051;-78
2023/09/09 18:37:24;;;;;;;10.82;7.20;;;;;;;;;;6342089;28;20055;-77
2023/09/09 18:40:26;;;;;;;7.85;6.65;;;;;;;;;;6339194;28;20055;-78
2023/09/09 18:43:32;;;;;;;9.50;6.97;;;;;;;;;;6341382;28;20113;-77
2023/09/09 18:46:34;;;;;;;7.95;6.68;;;;;;;;;;6344612;28;20143;-77
2023/09/09 18:49:36;;;;;;;10.00;7.60;;;;;;;;;;6340902;28;20100;-77
2023/09/09 18:52:39;;;;;;;9.03;7.03;;;;;;;;;;6340703;28;20139;-78
2023/09/09 18:55:41;;;;;;;10.38;6.25;;;;;;;;;;6339370;28;20355;-77
2023/09/09 18:58:44;;;;;;;9.30;6.87;;;;;;;;;;6342981;28;20217;-78
2023/09/09 19:01:54;;;;;;;12.43;7.78;;;;;;;;;;6341719;28;20056;-77
2023/09/09 19:04:56;;;;;;;8.45;7.18;;;;;;;;;;6340011;28;20105;-78
2023/09/09 19:08:00;;;;;;;12.00;7.35;;;;;;;;;;6342112;28;20077;-79
2023/09/09 19:11:02;;;;;;;12.82;7.15;;;;;;;;;;6339184;28;20459;-78
2023/09/09 19:14:04;;;;;;;18.02;7.50;;;;;;;;;;6329557;28;20063;-78
2023/09/09 19:17:24;;;;;;;11.87;6.80;;;;;;;;;;6343530;28;20063;-78
2023/09/09 19:20:26;;;;;;;13.15;7.60;;;;;;;;;;6341669;28;20106;-78
2023/09/09 19:23:29;;;;;;;10.25;7.70;;;;;;;;;;6343553;28;20055;-78
2023/09/09 19:26:31;;;;;;;12.98;6.90;;;;;;;;;;6341611;28;20067;-78
2023/09/09 19:29:33;;;;;;;13.50;7.00;;;;;;;;;;6341792;28;20063;-78
2023/09/09 19:32:38;;;;;;;9.35;7.05;;;;;;;;;;6345893;28;20118;-78
2023/09/09 19:35:42;;;;;;;16.70;7.90;;;;;;;;;;6340477;28;20236;-78
2023/09/09 19:38:45;;;;;;;13.32;7.43;;;;;;;;;;6342740;28;20235;-77
2023/09/09 19:41:48;;;;;;;11.00;7.13;;;;;;;;;;6342769;28;20130;-77
2023/09/09 19:44:50;;;;;;;;;;;;;;;;;;6341614;28;20103;-77
2023/09/09 19:47:52;;;;;;;17.60;11.82;;;;;;;;;;6346078;28;21223;-78
2023/09/09 19:50:55;;;;;;;11.35;8.85;;;;;;;;;;6305506;28;20118;-80
2023/09/09 19:54:12;;;;;;;12.05;7.10;;;;;;;;;;6341792;28;20071;-79
2023/09/09 19:57:21;;;;;;;13.93;8.20;;;;;;;;;;6302998;28;20048;-78
2023/09/09 20:00:23;;;;;;;10.90;7.57;;;;;;;;;;6344746;28;20073;-78
2023/09/09 20:03:25;;;;;;;15.95;7.20;;;;;;;;;;6340695;28;20048;-78
2023/09/09 20:06:27;;;;;;;13.23;8.45;;;;;;;;;;6341012;28;20571;-78
2023/09/09 20:09:30;;;;;;;12.77;7.93;;;;;;;;;;6347772;28;20051;-77
2023/09/09 20:12:32;;;;;;;16.65;8.02;;;;;;;;;;6345147;28;20473;-78
2023/09/09 20:15:58;;;;;;;13.25;7.65;;;;;;;;;;6349017;28;20054;-79
2023/09/09 20:19:03;;;;;;;12.57;7.90;;;;;;;;;;6339033;28;20220;-77
2023/09/09 20:22:05;;;;;;;10.70;7.88;;;;;;;;;;6346406;27;20047;-78
2023/09/09 20:25:09;;;;;;;11.93;8.13;;;;;;;;;;6347078;28;20055;-79
2023/09/09 20:28:11;;;;;;;12.60;7.80;;;;;;;;;;6344911;28;20075;-78
2023/09/09 20:31:13;;;;;;;10.98;7.85;;;;;;;;;;6348432;28;20096;-79
2023/09/09 20:34:15;;;;;;;16.40;8.10;;;;;;;;;;6344458;28;20074;-77
2023/09/09 20:37:18;;;;;;;10.07;8.70;;;;;;;;;;6346561;28;20051;-78
2023/09/09 20:40:22;;;;;;;15.48;9.05;;;;;;;;;;6343911;27;20213;-78
2023/09/09 20:43:25;;;;;;;12.50;8.30;;;;;;;;;;6346571;27;20122;-79
2023/09/09 20:46:30;;;;;;;;;;;;;;;;;;6347989;28;20043;-77
2023/09/09 20:49:32;;;;;;;16.20;9.25;;;;;;;;;;6345642;28;19924;-78
2023/09/09 20:52:34;;;;;;;12.35;9.45;;;;;;;;;;6337702;28;20289;-78
2023/09/09 20:55:38;;;;;;;15.05;10.43;;;;;;;;;;6345510;28;20060;-78
2023/09/09 20:58:40;;;;;;;16.20;11.20;;;;;;;;;;6339511;27;20127;-78
2023/09/09 21:01:48;;;;;;;14.00;9.77;;;;;;;;;;6347188;28;20059;-78
2023/09/09 21:04:51;;;;;;;18.60;10.18;;;;;;;;;;6329199;28;20107;-77
2023/09/09 21:07:53;;;;;;;17.90;10.43;;;;;;;;;;6334951;28;20102;-77
2023/09/09 21:10:57;;;;;;;17.13;10.65;;;;;;;;;;6344886;28;20048;-78
2023/09/09 21:14:19;;;;;;;17.98;10.65;;;;;;;;;;6335357;28;20044;-77
2023/09/09 21:17:21;;;;;;;16.52;11.23;;;;;;;;;;6344373;28;20056;-78
2023/09/09 21:20:23;;;;;;;16.60;11.55;;;;;;;;;;6346570;28;20076;-78
2023/09/09 21:23:35;;;;;;;19.52;12.45;;;;;;;;;;6345588;28;20269;-78
2023/09/09 21:29:58;;;;;;;18.55;11.73;;;;;;;;;;6345002;28;20071;-77
2023/09/09 21:33:17;;;;;;;19.50;11.45;;;;;;;;;;6346318;28;20114;-78
2023/09/09 21:36:19;;;;;;;16.38;12.38;;;;;;;;;;6345492;28;20063;-78
2023/09/09 21:39:22;;;;;;;17.67;13.25;;;;;;;;;;6343554;28;20052;-77
2023/09/09 21:42:25;;;;;;;;;;;;;;;;;;6344112;28;20587;-78
2023/09/09 21:45:27;;;;;;;22.35;12.15;;;;;;;;;;6341818;28;19924;-78
2023/09/09 21:48:29;;;;;;;21.23;11.10;;;;;;;;;;6342528;28;20368;-77
2023/09/09 21:51:31;;;;;;;18.65;11.77;;;;;;;;;;6327013;28;20058;-78
2023/09/09 21:54:33;;;;;;;18.88;11.90;;;;;;;;;;6344305;28;20058;-77
2023/09/09 21:57:36;;;;;;;17.20;13.15;;;;;;;;;;6342259;28;20067;-77
2023/09/09 22:00:38;;;;;;;;;;;;;;;;;;6348133;28;20327;-78
2023/09/09 22:03:40;;;;;;;19.70;12.57;;;;;;;;;;6345360;27;19927;-77
2023/09/09 22:06:41;;;;;;;18.30;12.23;;;;;;;;;;6344124;28;20328;-77
2023/09/09 22:09:43;;;;;;;17.45;12.38;;;;;;;;;;6342984;28;20052;-79
2023/09/09 22:12:47;;;;;;;22.25;12.65;;;;;;;;;;6343854;28;20205;-78
2023/09/09 22:15:49;;;;;;;17.42;11.85;;;;;;;;;;6343663;28;20071;-78
2023/09/09 22:18:51;;;;;;;17.73;12.20;;;;;;;;;;6346547;28;20366;-78
2023/09/09 22:21:53;;;;;;;16.30;12.65;;;;;;;;;;6345627;28;20039;-79
2023/09/09 22:24:54;;;;;;;18.05;11.95;;;;;;;;;;6341515;28;20051;-77
2023/09/09 22:27:58;;;;;;;16.67;11.88;;;;;;;;;;6343676;28;20087;-79
2023/09/09 22:31:00;;;;;;;13.70;11.23;;;;;;;;;;6343339;28;20062;-80
2023/09/09 22:34:05;;;;;;;18.52;11.93;;;;;;;;;;6343048;28;20051;-80
2023/09/09 22:37:06;;;;;;;21.85;12.98;;;;;;;;;;6342620;28;20067;-77
2023/09/09 22:40:09;;;;;;;22.35;11.70;;;;;;;;;;6343831;28;20097;-78
2023/09/09 22:43:12;;;;;;;46.22;14.90;;;;;;;;;;6346245;28;20062;-78
2023/09/09 22:46:14;;;;;;;;;;;;;;;;;;6343952;28;20232;-77
2023/09/09 22:49:18;;;;;;;19.17;12.15;;;;;;;;;;6347434;28;19977;-79
2023/09/09 22:52:57;;;;;;;17.90;12.10;;;;;;;;;;6344395;28;20043;-78
2023/09/09 22:56:02;;;;;;;16.55;11.30;;;;;;;;;;6343160;28;20347;-77
2023/09/09 22:59:05;;;;;;;18.08;12.50;;;;;;;;;;6337728;28;20084;-77
2023/09/09 23:02:07;;;;;;;16.20;11.20;;;;;;;;;;6343834;28;20107;-78
2023/09/09 23:05:09;;;;;;;23.08;12.68;;;;;;;;;;6342675;28;20066;-78
2023/09/09 23:08:12;;;;;;;19.95;12.93;;;;;;;;;;6340885;28;20051;-78
2023/09/09 23:11:14;;;;;;;17.80;12.40;;;;;;;;;;6341165;28;20066;-77
2023/09/09 23:14:20;;;;;;;15.88;12.18;;;;;;;;;;6342934;28;20089;-78
2023/09/09 23:17:22;;;;;;;16.33;12.38;;;;;;;;;;6341776;28;20243;-77
2023/09/09 23:20:25;;;;;;;19.13;12.77;;;;;;;;;;6342494;28;20573;-78
2023/09/09 23:23:29;;;;;;;20.40;13.07;;;;;;;;;;6343585;28;20054;-78
2023/09/09 23:26:31;;;;;;;22.92;12.18;;;;;;;;;;6342259;28;20076;-77
2023/09/09 23:29:34;;;;;;;41.65;12.82;;;;;;;;;;6342118;28;20059;-78
2023/09/09 23:32:53;;;;;;;;;;;;;;;;;;6342133;28;20051;-77
2023/09/09 23:35:55;;;;;;;19.08;11.90;;;;;;;;;;6341829;28;19960;-78
2023/09/09 23:39:06;;;;;;;19.23;11.63;;;;;;;;;;6344018;28;20047;-77
2023/09/09 23:42:08;;;;;;;15.75;12.05;;;;;;;;;;6343638;28;20282;-77
2023/09/09 23:45:11;;;;;;;19.00;13.32;;;;;;;;;;6347856;28;20081;-78
2023/09/09 23:48:14;;;;;;;16.05;12.55;;;;;;;;;;6338992;28;20239;-78
2023/09/09 23:51:16;;;;;;;15.97;11.93;;;;;;;;;;6349357;28;20051;-78
2023/09/09 23:54:23;;;;;;;17.27;11.60;;;;;;;;;;6347977;28;20082;-78
2023/09/09 23:57:24;;;;;;;16.52;12.45;;;;;;;;;;6349489;28;20093;-77
